Time;durP1;ratioP1;P1;durP2;ratioP2;P2;SDS_P1;SDS_P2;PMS_P1;PMS_P2;Temp;Humidity;BMP_temperature;BMP_pressure;BME280_temperature;BME280_humidity;BME280_pressure;Samples;Min_cycle;Max_cycle;Signal;HPM_P1;HPM_P2
2021/10/15 00:01:48;;;;;;;47.48;26.35;;;;;;;12.13;76.63;102362.48;1759911;81;21277;-73
2021/10/15 00:04:21;;;;;;;46.98;26.77;;;;;;;12.16;76.08;102365.65;1735867;81;21221;-72
2021/10/15 00:06:54;;;;;;;46.28;27.62;;;;;;;12.18;75.64;102363.48;1741334;81;21170;-77
2021/10/15 00:09:27;;;;;;;48.98;27.30;;;;;;;12.19;75.26;102359.64;1745817;81;21711;-77
2021/10/15 00:12:00;;;;;;;45.20;27.25;;;;;;;12.21;75.15;102362.16;1750939;81;21187;-75
2021/10/15 00:14:34;;;;;;;51.63;24.57;;;;;;;12.17;74.68;102360.39;1747595;81;21308;-76
2021/10/15 00:17:06;;;;;;;38.78;23.95;;;;;;;12.16;74.52;102357.30;1729951;83;21164;-76
2021/10/15 00:19:41;;;;;;;47.45;26.68;;;;;;;12.15;74.67;102356.13;1729928;82;21190;-76
2021/10/15 00:38:51;;;;;;;44.13;23.32;;;;;;;12.00;73.62;102353.73;1561382;92;21253;-75
2021/10/15 00:41:25;;;;;;;36.83;21.95;;;;;;;11.99;73.24;102354.78;1640590;86;21360;-74
2021/10/15 00:44:08;;;;;;;40.83;22.40;;;;;;;12.03;72.95;102353.25;1665160;85;21357;-72
2021/10/15 00:46:42;;;;;;;39.53;23.10;;;;;;;12.04;72.65;102346.61;1664678;85;21859;-74
2021/10/15 00:49:16;;;;;;;33.02;21.12;;;;;;;12.02;72.58;102348.78;1664549;86;21230;-75
2021/10/15 00:51:48;;;;;;;39.95;22.73;;;;;;;12.00;72.50;102347.30;1664735;86;21408;-74
2021/10/15 00:54:21;;;;;;;35.63;22.05;;;;;;;11.98;72.60;102348.91;1664166;86;21443;-74
2021/10/15 00:57:12;;;;;;;36.42;21.87;;;;;;;11.99;72.74;102349.22;1664399;85;21360;-77
2021/10/15 01:00:12;;;;;;;35.55;21.87;;;;;;;12.00;72.78;102349.55;1664865;86;21197;-74
2021/10/15 01:02:45;;;;;;;36.70;22.02;;;;;;;12.02;72.81;102347.91;1666078;86;21372;-74
2021/10/15 01:05:17;;;;;;;38.35;22.37;;;;;;;12.03;72.77;102350.47;1665966;86;21411;-75
2021/10/15 01:07:53;;;;;;;36.43;21.67;;;;;;;12.04;72.65;102352.17;1666220;86;21214;-76
2021/10/15 01:10:26;;;;;;;34.95;22.32;;;;;;;12.03;72.69;102353.25;1665983;86;21902;-74
2021/10/15 01:12:58;;;;;;;36.20;20.75;;;;;;;12.05;73.20;102362.78;1665959;86;21233;-78
2021/10/15 01:15:32;;;;;;;36.03;20.60;;;;;;;12.07;73.81;102367.56;1665915;86;21535;-78
2021/10/15 01:18:13;;;;;;;71.50;49.33;;;;;;;12.10;74.03;102369.91;1666069;86;21421;-77
2021/10/15 01:20:49;;;;;;;76.97;54.23;;;;;;;12.12;73.93;102365.82;1653400;86;21913;-77
2021/10/15 01:23:41;;;;;;;56.83;37.60;;;;;;;12.16;73.62;102365.65;1594794;86;21259;-73
2021/10/15 01:26:14;;;;;;;50.08;29.05;;;;;;;12.16;73.11;102362.87;1633518;88;21231;-75
2021/10/15 01:28:47;;;;;;;43.68;24.87;;;;;;;12.09;72.60;102360.70;1635074;86;21279;-75
2021/10/15 01:31:20;;;;;;;39.70;24.07;;;;;;;12.02;72.23;102357.66;1666997;84;21269;-71
2021/10/15 01:33:54;;;;;;;36.17;21.60;;;;;;;11.95;72.19;102351.30;1664412;86;21262;-71
2021/10/15 01:36:27;;;;;;;38.33;22.70;;;;;;;11.93;72.30;102352.92;1665845;86;21353;-74
2021/10/15 01:39:00;;;;;;;41.53;22.48;;;;;;;11.90;72.36;102356.17;1665535;86;21349;-75
2021/10/15 01:41:32;;;;;;;39.53;20.82;;;;;;;11.90;72.40;102347.82;1654166;86;21929;-78
2021/10/15 01:44:05;;;;;;;42.15;23.02;;;;;;;11.91;72.46;102355.61;1633574;88;21216;-77
2021/10/15 01:46:38;;;;;;;41.90;24.87;;;;;;;11.94;72.44;102356.56;1633536;86;21224;-78
2021/10/15 01:49:10;;;;;;;38.70;22.55;;;;;;;11.97;72.70;102353.31;1663774;85;21206;-77
2021/10/15 01:51:43;;;;;;;31.35;19.25;;;;;;;12.00;72.90;102355.13;1666210;86;21359;-74
2021/10/15 01:54:16;;;;;;;33.02;20.12;;;;;;;12.04;72.99;102363.87;1666012;86;21870;-78
2021/10/15 01:56:50;;;;;;;31.93;19.30;;;;;;;12.06;72.85;102356.99;1665875;86;21293;-75
2021/10/15 01:59:22;;;;;;;36.85;21.45;;;;;;;12.10;72.63;102355.43;1666035;86;21344;-76
2021/10/15 02:01:56;;;;;;;38.23;21.45;;;;;;;12.08;72.30;102350.64;1665861;86;21186;-75
2021/10/15 02:04:28;;;;;;;31.60;19.12;;;;;;;12.06;72.08;102340.28;1664452;84;21396;-75
2021/10/15 02:07:01;;;;;;;31.12;19.30;;;;;;;12.01;71.94;102348.47;1665221;86;21372;-77
2021/10/15 02:09:34;;;;;;;31.45;20.23;;;;;;;11.95;71.87;102349.91;1666043;85;21202;-78
2021/10/15 02:12:07;;;;;;;31.45;19.12;;;;;;;11.87;71.92;102346.88;1665983;86;21473;-75
2021/10/15 02:14:39;;;;;;;28.45;19.00;;;;;;;11.83;71.95;102341.47;1665958;86;21444;-73
2021/10/15 02:17:12;;;;;;;33.48;19.87;;;;;;;11.78;71.95;102346.86;1665913;86;21862;-75
2021/10/15 02:19:45;;;;;;;35.03;19.95;;;;;;;11.73;72.09;102341.68;1659002;85;21213;-78
2021/10/15 02:22:17;;;;;;;33.38;20.02;;;;;;;11.73;72.34;102339.73;1711408;80;21214;-79
2021/10/15 02:24:50;;;;;;;40.65;20.57;;;;;;;11.71;72.41;102334.95;1724650;82;21412;-79
2021/10/15 02:27:23;;;;;;;29.60;18.37;;;;;;;11.68;72.43;102328.42;1748226;82;21325;-80
2021/10/15 02:29:59;;;;;;;32.60;18.45;;;;;;;11.67;72.42;102332.85;1743416;82;21708;-80
2021/10/15 02:32:32;;;;;;;31.73;17.32;;;;;;;11.67;72.44;102339.25;1718263;83;21396;-80
2021/10/15 02:35:06;;;;;;;31.97;19.92;;;;;;;11.67;72.55;102339.25;1718265;83;21349;-82
2021/10/15 02:37:41;;;;;;;29.18;18.98;;;;;;;11.69;72.75;102342.64;1720394;82;21875;-81
2021/10/15 02:40:18;;;;;;;34.13;18.62;;;;;;;11.73;72.75;102345.30;1739160;80;21241;-81
2021/10/15 02:42:51;;;;;;;51.13;20.75;;;;;;;11.74;72.55;102340.03;1727013;82;21281;-82
2021/10/15 02:45:25;;;;;;;28.45;18.87;;;;;;;11.71;72.50;102337.73;1734129;82;22124;-78
2021/10/15 02:47:58;;;;;;;30.47;19.13;;;;;;;11.69;72.43;102336.25;1742551;80;21688;-77
2021/10/15 02:50:30;;;;;;;34.27;20.50;;;;;;;11.65;72.36;102333.07;1725963;82;21340;-73
2021/10/15 02:53:03;;;;;;;29.37;18.60;;;;;;;11.64;72.59;102336.07;1735233;82;21780;-75
2021/10/15 02:55:35;;;;;;;38.55;19.00;;;;;;;11.62;72.62;102344.64;1718546;83;21206;-77
2021/10/15 02:58:08;;;;;;;34.90;20.57;;;;;;;11.62;72.59;102341.02;1733563;82;21187;-74
2021/10/15 03:00:41;;;;;;;29.00;19.15;;;;;;;11.60;72.63;102346.80;1738214;82;21325;-76
2021/10/15 03:03:14;;;;;;;32.93;20.27;;;;;;;11.58;72.78;102343.41;1744685;82;21193;-77
2021/10/15 03:05:46;;;;;;;39.85;19.20;;;;;;;11.60;72.87;102345.94;1715284;80;21186;-80
2021/10/15 03:08:19;;;;;;;38.60;19.35;;;;;;;11.63;72.91;102344.94;1661518;85;21266;-79
2021/10/15 03:10:51;;;;;;;30.77;18.67;;;;;;;11.62;73.04;102355.77;1689311;84;21376;-81
2021/10/15 03:13:23;;;;;;;36.98;19.12;;;;;;;11.62;73.08;102357.16;1661512;85;21206;-82
2021/10/15 03:15:58;;;;;;;30.08;19.20;;;;;;;11.62;73.16;102352.98;1689820;84;21241;-77
2021/10/15 03:18:32;;;;;;;37.85;21.40;;;;;;;11.63;73.23;102347.72;1662040;85;21340;-77
2021/10/15 03:21:05;;;;;;;;;;;;;;;11.62;73.17;102348.81;1691976;85;21385;-78
2021/10/15 03:23:38;;;;;;;36.38;19.90;;;;;;;11.60;73.16;102350.98;1688901;85;20269;-76
2021/10/15 03:26:10;;;;;;;40.38;21.62;;;;;;;11.59;73.19;102356.76;1661292;84;21776;-73
2021/10/15 03:28:43;;;;;;;35.70;20.95;;;;;;;11.58;73.30;102361.98;1679491;83;21400;-75
2021/10/15 03:31:15;;;;;;;37.00;21.52;;;;;;;11.61;73.41;102359.63;1661902;85;21866;-72
2021/10/15 03:33:51;;;;;;;33.70;20.62;;;;;;;11.64;73.32;102366.16;1690728;84;21210;-74
2021/10/15 03:36:23;;;;;;;37.60;22.13;;;;;;;11.65;73.18;102369.23;1662099;86;21724;-74
2021/10/15 03:38:55;;;;;;;36.68;22.37;;;;;;;11.63;73.06;102360.80;1690826;84;21198;-73
2021/10/15 03:41:28;;;;;;;40.43;22.77;;;;;;;11.59;73.04;102352.59;1662175;86;21332;-74
2021/10/15 03:44:00;;;;;;;35.03;21.17;;;;;;;11.54;73.09;102359.33;1691203;85;21206;-71
2021/10/15 03:46:33;;;;;;;39.37;23.10;;;;;;;11.48;73.20;102360.23;1661918;85;21740;-76
2021/10/15 03:49:06;;;;;;;34.43;23.22;;;;;;;11.44;73.44;102361.22;1658791;86;21917;-76
2021/10/15 03:51:38;;;;;;;44.63;22.27;;;;;;;11.45;73.58;102371.83;1634240;86;21217;-71
2021/10/15 03:54:11;;;;;;;39.85;23.25;;;;;;;11.44;73.70;102366.78;1686728;85;21969;-69
2021/10/15 03:56:43;;;;;;;33.63;21.25;;;;;;;11.41;73.87;102373.34;1689269;84;21416;-69
2021/10/15 03:59:16;;;;;;;39.98;21.62;;;;;;;11.39;73.99;102380.54;1688790;85;21237;-70
2021/10/15 04:01:49;;;;;;;37.98;23.40;;;;;;;11.36;74.15;102374.55;1655903;86;21368;-73
2021/10/15 04:04:21;;;;;;;39.95;23.62;;;;;;;11.38;74.36;102382.98;1689479;83;21238;-67
2021/10/15 04:06:54;;;;;;;34.60;22.42;;;;;;;11.46;74.47;102388.30;1661849;85;21795;-69
2021/10/15 04:09:26;;;;;;;48.08;24.57;;;;;;;11.54;74.36;102385.76;1668909;85;21249;-70
2021/10/15 04:11:59;;;;;;;41.45;23.32;;;;;;;11.56;74.31;102385.84;1660295;86;21182;-70
2021/10/15 04:14:32;;;;;;;38.85;22.25;;;;;;;11.56;74.27;102391.41;1691387;84;21250;-70
2021/10/15 04:17:05;;;;;;;34.83;21.20;;;;;;;11.58;74.26;102392.09;1660104;84;21740;-70
2021/10/15 04:19:38;;;;;;;36.48;22.17;;;;;;;11.59;74.15;102399.36;1691202;83;21170;-71
2021/10/15 04:22:11;;;;;;;38.53;22.82;;;;;;;11.64;74.13;102400.93;1668171;85;21358;-71
2021/10/15 04:24:44;;;;;;;39.00;23.37;;;;;;;11.67;74.11;102401.86;1691246;83;21336;-71
2021/10/15 04:27:16;;;;;;;39.03;23.77;;;;;;;11.68;74.02;102397.98;1660366;86;21403;-71
2021/10/15 04:29:49;;;;;;;37.73;23.25;;;;;;;11.66;73.89;102400.16;1690772;84;21387;-71
2021/10/15 04:32:21;;;;;;;41.20;22.62;;;;;;;11.64;73.86;102393.98;1659392;85;21202;-69
2021/10/15 04:34:54;;;;;;;33.67;21.80;;;;;;;11.60;73.79;102392.71;1690436;84;21755;-70
2021/10/15 04:37:27;;;;;;;39.20;21.77;;;;;;;11.58;73.75;102393.48;1659345;86;21344;-72
2021/10/15 04:39:59;;;;;;;34.00;21.52;;;;;;;11.55;73.78;102393.05;1690962;83;21419;-70
2021/10/15 04:42:32;;;;;;;46.10;22.07;;;;;;;11.54;73.89;102385.76;1660334;86;21344;-68
2021/10/15 04:45:05;;;;;;;38.53;24.33;;;;;;;11.54;73.96;102392.19;1687179;84;21257;-69
2021/10/15 04:47:37;;;;;;;41.05;24.23;;;;;;;11.53;74.11;102396.05;1690764;84;21383;-71
2021/10/15 04:50:10;;;;;;;37.58;23.40;;;;;;;11.50;74.17;102404.00;1660241;85;21261;-69
2021/10/15 04:52:43;;;;;;;43.52;22.87;;;;;;;11.44;74.34;102395.99;1692078;83;21376;-72
2021/10/15 04:55:17;;;;;;;35.75;21.17;;;;;;;11.41;74.55;102385.85;1690452;84;21308;-70
2021/10/15 04:57:49;;;;;;;35.38;20.70;;;;;;;11.43;74.69;102392.06;1659138;85;21395;-71
2021/10/15 05:00:23;;;;;;;44.30;22.67;;;;;;;11.40;74.75;102390.59;1692075;83;21264;-69
2021/10/15 05:02:55;;;;;;;38.20;22.93;;;;;;;11.39;74.88;102389.41;1659559;86;21194;-70
2021/10/15 05:05:29;;;;;;;44.77;24.60;;;;;;;11.38;74.94;102391.33;1691245;85;21328;-70
2021/10/15 05:08:01;;;;;;;47.38;20.68;;;;;;;11.42;75.02;102389.81;1692054;83;21183;-76
2021/10/15 05:10:34;;;;;;;37.42;21.23;;;;;;;11.45;75.17;102393.55;1632482;88;21232;-71
2021/10/15 05:13:07;;;;;;;40.52;21.90;;;;;;;11.53;75.24;102386.31;1662441;86;21186;-71
2021/10/15 05:15:42;;;;;;;49.53;24.18;;;;;;;11.58;75.01;102380.06;1661068;85;21900;-71
2021/10/15 05:18:15;;;;;;;41.83;24.30;;;;;;;11.60;74.79;102379.33;1662605;86;21347;-72
2021/10/15 05:20:49;;;;;;;40.30;22.87;;;;;;;11.62;74.65;102385.54;1663294;86;21249;-71
2021/10/15 05:23:21;;;;;;;36.42;22.52;;;;;;;11.65;74.65;102394.81;1663576;86;21434;-71
2021/10/15 05:25:54;;;;;;;36.33;21.37;;;;;;;11.67;74.46;102389.33;1663548;86;21201;-71
2021/10/15 05:28:26;;;;;;;37.70;22.60;;;;;;;11.73;74.31;102400.13;1663496;86;21775;-71
2021/10/15 05:30:58;;;;;;;38.38;22.27;;;;;;;11.79;74.34;102400.05;1663580;86;21221;-72
2021/10/15 05:33:31;;;;;;;30.00;20.60;;;;;;;11.90;74.33;102399.84;1663874;86;21210;-67
2021/10/15 05:36:04;;;;;;;38.40;22.37;;;;;;;12.01;74.14;102392.15;1690918;83;21335;-71
2021/10/15 05:38:36;;;;;;;37.73;22.60;;;;;;;12.09;73.80;102378.79;1699579;84;21382;-69
2021/10/15 05:41:13;;;;;;;39.63;22.93;;;;;;;12.15;73.27;102379.27;1681727;84;22004;-67
2021/10/15 05:43:46;;;;;;;41.80;26.90;;;;;;;12.16;72.75;102383.75;1651083;86;21550;-68
2021/10/15 05:46:19;;;;;;;36.65;21.40;;;;;;;12.14;72.59;102386.45;1662938;85;21217;-68
2021/10/15 05:48:53;;;;;;;30.32;21.15;;;;;;;12.11;72.66;102394.72;1663708;86;21861;-68
2021/10/15 05:51:26;;;;;;;35.48;19.98;;;;;;;12.15;72.88;102393.19;1663213;86;21189;-75
2021/10/15 05:54:01;;;;;;;36.73;21.55;;;;;;;12.23;73.03;102393.45;1663202;86;21336;-74
2021/10/15 05:59:08;;;;;;;42.13;22.37;;;;;;;12.39;73.06;102403.97;1590440;89;21242;-71
2021/10/15 06:01:41;;;;;;;38.02;23.42;;;;;;;12.51;73.25;102407.17;1583386;90;21956;-74
2021/10/15 06:15:51;;;;;;;42.90;24.85;;;;;;;12.95;72.16;102408.27;1739869;82;21790;-75
2021/10/15 06:18:24;;;;;;;45.15;25.12;;;;;;;12.99;72.03;102415.09;1769436;81;21238;-72
2021/10/15 06:20:57;;;;;;;44.03;24.17;;;;;;;13.02;71.69;102413.22;1753019;82;21434;-73
2021/10/15 06:23:30;;;;;;;41.00;23.60;;;;;;;13.02;71.39;102401.23;1769197;81;21421;-75
2021/10/15 06:26:03;;;;;;;47.05;24.75;;;;;;;13.03;71.34;102412.13;1752785;82;21364;-73
2021/10/15 06:28:36;;;;;;;47.67;26.93;;;;;;;13.03;71.47;102400.97;1769760;81;21351;-75
2021/10/15 06:31:10;;;;;;;52.17;29.95;;;;;;;13.08;71.39;102396.94;1752916;82;21371;-73
2021/10/15 06:33:46;;;;;;;48.17;27.22;;;;;;;13.12;71.22;102395.39;1769495;81;21195;-73
2021/10/15 06:36:19;;;;;;;44.70;24.60;;;;;;;13.16;71.23;102398.56;1753003;80;21320;-75
2021/10/15 06:38:52;;;;;;;47.27;25.80;;;;;;;13.21;71.11;102398.72;1751999;81;21208;-71
2021/10/15 06:41:26;;;;;;;37.48;21.57;;;;;;;13.21;71.04;102389.78;1764833;80;21397;-73
2021/10/15 06:43:58;;;;;;;38.63;21.95;;;;;;;13.19;70.97;102383.59;1746245;82;21242;-70
2021/10/15 06:46:31;;;;;;;38.30;21.52;;;;;;;13.16;71.11;102378.51;1742379;81;22077;-70
2021/10/15 06:49:04;;;;;;;44.17;22.13;;;;;;;13.19;71.23;102378.55;1741250;81;21290;-76
2021/10/15 06:51:38;;;;;;;30.40;19.37;;;;;;;13.23;71.51;102375.08;1752251;81;21337;-73
2021/10/15 06:54:11;;;;;;;36.42;21.80;;;;;;;13.30;71.40;102368.84;1739403;82;21723;-72
2021/10/15 06:56:46;;;;;;;49.23;21.45;;;;;;;13.38;71.35;102365.71;1735849;82;21231;-73
2021/10/15 06:59:18;;;;;;;36.30;20.17;;;;;;;13.46;71.31;102361.74;1739862;82;21242;-75
2021/10/15 07:01:51;;;;;;;33.25;21.07;;;;;;;13.54;71.44;102356.67;1739632;82;21379;-73
2021/10/15 07:04:23;;;;;;;33.65;20.77;;;;;;;13.61;71.26;102349.56;1739536;81;21775;-73
2021/10/15 07:06:56;;;;;;;29.60;18.75;;;;;;;13.66;71.15;102347.77;1733815;81;21357;-74
2021/10/15 07:09:28;;;;;;;31.12;18.70;;;;;;;13.82;70.87;102355.42;1726900;83;21164;-76
2021/10/15 07:12:02;;;;;;;26.93;18.40;;;;;;;13.82;70.87;102355.42;1726863;83;21211;-73
2021/10/15 07:14:34;;;;;;;28.12;19.45;;;;;;;13.99;70.72;102363.40;1726756;83;21405;-72
2021/10/15 07:17:07;;;;;;;27.13;17.87;;;;;;;13.99;70.72;102363.40;1726732;83;21345;-73
2021/10/15 07:19:42;;;;;;;34.65;18.15;;;;;;;14.08;69.82;102358.31;1726281;83;21274;-73
2021/10/15 07:22:14;;;;;;;27.02;19.25;;;;;;;14.08;69.82;102358.31;1726420;83;21191;-73
2021/10/15 07:24:46;;;;;;;24.92;16.15;;;;;;;14.04;69.45;102353.75;1735030;82;21238;-73
2021/10/15 07:27:19;;;;;;;25.37;17.07;;;;;;;14.04;69.45;102353.75;1746468;82;21203;-75
2021/10/15 07:29:52;;;;;;;27.15;17.00;;;;;;;14.03;69.13;102348.41;1746253;82;21155;-76
2021/10/15 07:32:25;;;;;;;28.02;16.65;;;;;;;14.01;69.29;102346.41;1738768;81;21205;-74
2021/10/15 07:35:03;;;;;;;32.03;17.10;;;;;;;14.06;69.51;102339.55;1740155;81;21197;-75
2021/10/15 07:37:36;;;;;;;25.82;16.52;;;;;;;14.13;69.49;102345.86;1738574;81;21256;-74
2021/10/15 07:40:10;;;;;;;29.40;16.73;;;;;;;14.19;69.21;102341.56;1736650;81;21745;-75
2021/10/15 07:42:43;;;;;;;26.97;16.40;;;;;;;14.26;68.45;102334.47;1739623;81;21251;-73
2021/10/15 07:45:15;;;;;;;33.75;16.95;;;;;;;14.27;68.48;102336.16;1748441;81;21749;-72
2021/10/15 07:47:54;;;;;;;25.37;16.12;;;;;;;14.28;68.46;102336.45;1743929;81;21196;-74
2021/10/15 07:50:26;;;;;;;22.77;14.75;;;;;;;14.29;67.90;102338.19;1747048;81;21688;-73
2021/10/15 07:52:58;;;;;;;24.67;15.55;;;;;;;14.29;67.90;102338.19;1745089;81;21222;-74
2021/10/15 07:55:31;;;;;;;28.52;17.07;;;;;;;14.21;67.33;102339.39;1744645;81;21199;-74
2021/10/15 07:58:04;;;;;;;;;;;;;;;14.16;67.63;102335.05;1741362;81;21207;-74
2021/10/15 08:00:38;;;;;;;24.50;15.20;;;;;;;14.13;67.58;102325.74;1743061;81;20547;-73
2021/10/15 08:03:11;;;;;;;27.45;14.30;;;;;;;14.15;67.74;102322.18;1748446;81;21765;-76
2021/10/15 08:05:49;;;;;;;26.42;15.20;;;;;;;14.15;67.74;102322.18;1750708;81;21298;-76
2021/10/15 08:08:30;;;;;;;18.87;13.35;;;;;;;14.21;67.93;102328.22;1752950;81;21260;-76
2021/10/15 08:11:02;;;;;;;20.48;13.90;;;;;;;14.13;66.85;102326.30;1753268;81;21746;-74
2021/10/15 08:13:35;;;;;;;25.37;15.20;;;;;;;14.13;66.85;102326.30;1743521;81;21492;-73
2021/10/15 08:16:07;;;;;;;24.37;15.30;;;;;;;14.11;67.00;102334.09;1751748;81;21787;-74
2021/10/15 08:18:40;;;;;;;27.48;15.43;;;;;;;14.09;67.02;102323.16;1739821;81;21338;-76
2021/10/15 08:21:12;;;;;;;21.52;14.13;;;;;;;14.09;67.02;102323.16;1736283;81;21164;-75
2021/10/15 08:23:46;;;;;;;20.97;13.20;;;;;;;14.13;67.07;102332.72;1735729;81;21357;-71
2021/10/15 08:26:19;;;;;;;25.20;13.15;;;;;;;14.16;66.77;102330.86;1736759;81;21734;-72
2021/10/15 08:28:58;;;;;;;26.82;13.78;;;;;;;14.27;66.93;102334.23;1743420;81;21752;-71
2021/10/15 08:31:25;;;;;;;20.27;14.73;;;;;;;14.27;66.93;102334.23;1753594;81;21194;-71
2021/10/15 08:33:58;;;;;;;23.07;13.68;;;;;;;14.32;66.53;102333.48;1716036;81;21384;-72
2021/10/15 08:36:31;;;;;;;22.62;14.30;;;;;;;14.35;66.62;102336.64;1731298;82;21861;-73
2021/10/15 08:39:04;;;;;;;21.48;12.78;;;;;;;14.40;66.73;102346.55;1726237;82;21324;-71
2021/10/15 08:41:36;;;;;;;24.67;14.37;;;;;;;14.46;66.88;102341.91;1721065;81;21325;-71
2021/10/15 08:44:09;;;;;;;20.77;14.23;;;;;;;14.54;66.61;102345.73;1765819;80;21438;-71
2021/10/15 08:46:50;;;;;;;19.85;13.55;;;;;;;14.55;66.06;102344.07;1739166;81;21239;-74
2021/10/15 08:49:24;;;;;;;24.72;14.65;;;;;;;14.57;66.25;102349.42;1763107;81;21372;-75
2021/10/15 08:51:56;;;;;;;20.17;13.18;;;;;;;14.55;65.48;102346.87;1736619;81;21646;-76
2021/10/15 08:54:38;;;;;;;21.93;13.28;;;;;;;14.53;65.33;102357.98;1730988;82;21237;-73
2021/10/15 08:57:05;;;;;;;22.67;12.68;;;;;;;14.46;65.45;102349.75;1739221;81;21341;-74
2021/10/15 08:59:46;;;;;;;19.85;13.30;;;;;;;14.46;65.21;102351.16;1732615;82;21308;-74
2021/10/15 09:02:23;;;;;;;23.18;12.98;;;;;;;14.41;64.80;102350.17;1740741;81;21188;-72
2021/10/15 09:04:59;;;;;;;20.43;12.82;;;;;;;14.35;64.78;102347.81;1734533;82;21334;-71
2021/10/15 09:07:33;;;;;;;19.62;11.88;;;;;;;14.34;65.19;102331.28;1735714;81;21420;-73
2021/10/15 09:10:16;;;;;;;18.42;11.93;;;;;;;14.35;64.90;102333.84;1747164;81;21420;-73
2021/10/15 09:12:59;;;;;;;21.02;13.90;;;;;;;14.36;64.29;102329.95;1751929;81;21167;-77
2021/10/15 09:15:35;;;;;;;21.48;13.20;;;;;;;14.32;64.25;102327.37;1751333;81;21845;-70
2021/10/15 09:18:29;;;;;;;19.12;12.70;;;;;;;14.30;64.27;102325.34;1758417;81;21180;-75
2021/10/15 09:20:55;;;;;;;21.10;13.03;;;;;;;14.25;64.22;102325.78;1753242;81;21207;-72
2021/10/15 09:23:50;;;;;;;18.37;12.40;;;;;;;14.19;64.65;102324.80;1750132;81;21183;-75
2021/10/15 09:26:23;;;;;;;18.30;11.53;;;;;;;14.19;64.65;102324.80;1753020;81;21325;-67
2021/10/15 09:28:56;;;;;;;19.30;12.03;;;;;;;14.25;65.23;102329.97;1709946;81;21282;-78
2021/10/15 09:31:28;;;;;;;14.03;10.53;;;;;;;14.31;64.90;102341.01;1723745;82;21255;-80
2021/10/15 09:34:01;;;;;;;17.30;11.50;;;;;;;14.31;64.28;102335.98;1718728;82;21179;-74
2021/10/15 09:36:34;;;;;;;16.32;11.30;;;;;;;14.31;64.28;102335.98;1732144;82;21223;-75
2021/10/15 09:39:25;;;;;;;18.77;10.90;;;;;;;14.35;64.56;102346.42;1732929;82;21327;-79
2021/10/15 09:41:58;;;;;;;18.10;10.10;;;;;;;14.36;64.00;102350.08;1735168;82;21724;-73
2021/10/15 09:44:36;;;;;;;20.70;10.23;;;;;;;14.31;63.42;102338.78;1710518;82;21302;-80
2021/10/15 09:47:24;;;;;;;17.85;10.40;;;;;;;14.30;63.38;102340.71;1721735;82;21199;-81
2021/10/15 09:50:05;;;;;;;12.93;9.13;;;;;;;14.27;63.00;102338.42;1723373;82;21361;-76
2021/10/15 09:52:52;;;;;;;16.00;9.70;;;;;;;14.29;63.24;102343.77;1723247;82;21250;-80
2021/10/15 09:58:22;;;;;;;14.13;10.20;;;;;;;14.35;63.03;102337.20;1730183;82;21167;-71
2021/10/15 10:00:55;;;;;;;20.40;10.08;;;;;;;14.40;63.29;102333.10;1731627;82;21168;-71
2021/10/15 10:03:28;;;;;;;18.40;11.22;;;;;;;14.45;63.24;102324.30;1754149;81;21942;-73
2021/10/15 10:06:01;;;;;;;20.52;12.47;;;;;;;14.54;62.60;102317.22;1729735;82;21915;-74
2021/10/15 10:08:34;;;;;;;16.20;10.03;;;;;;;14.54;62.60;102317.22;1731567;82;21359;-75
2021/10/15 10:11:07;;;;;;;19.82;10.00;;;;;;;14.55;62.09;102314.72;1732878;82;21377;-70
2021/10/15 10:13:40;;;;;;;17.70;10.60;;;;;;;14.55;62.15;102312.48;1730338;82;21203;-72
2021/10/15 10:16:13;;;;;;;17.25;10.60;;;;;;;14.57;62.12;102309.75;1731493;82;21419;-79
2021/10/15 10:18:46;;;;;;;18.27;10.18;;;;;;;14.61;62.41;102315.13;1727790;82;21237;-78
2021/10/15 10:21:25;;;;;;;16.00;10.90;;;;;;;14.61;62.41;102315.13;1723986;82;21948;-71
2021/10/15 10:24:12;;;;;;;21.07;9.53;;;;;;;14.64;62.03;102309.05;1737944;81;21857;-76
2021/10/15 10:26:55;;;;;;;16.67;9.90;;;;;;;14.68;61.92;102313.06;1722089;81;21223;-75
2021/10/15 10:29:29;;;;;;;11.95;8.35;;;;;;;14.78;60.49;102312.42;1724512;82;21281;-75
2021/10/15 10:32:17;;;;;;;18.90;9.40;;;;;;;14.78;60.49;102312.42;1736442;82;21325;-73
2021/10/15 10:34:50;;;;;;;12.93;8.63;;;;;;;14.76;59.99;102313.20;1736315;82;21160;-75
2021/10/15 10:37:24;;;;;;;12.65;8.75;;;;;;;14.78;60.91;102313.83;1722168;82;21389;-76
2021/10/15 10:40:09;;;;;;;12.10;8.93;;;;;;;14.81;61.05;102306.32;1740412;82;21275;-72
2021/10/15 10:43:04;;;;;;;10.70;7.90;;;;;;;14.84;60.48;102303.88;1744977;81;21788;-73
2021/10/15 10:45:37;;;;;;;11.95;8.18;;;;;;;14.87;60.45;102303.39;1751892;81;21367;-76
2021/10/15 10:48:10;;;;;;;13.65;8.50;;;;;;;14.94;60.43;102302.69;1744259;81;21717;-74
2021/10/15 10:50:51;;;;;;;10.63;7.87;;;;;;;14.98;59.77;102298.84;1744492;81;21299;-75
2021/10/15 10:53:23;;;;;;;13.20;8.13;;;;;;;14.98;59.77;102298.84;1738238;81;21351;-72
2021/10/15 10:55:56;;;;;;;12.45;7.90;;;;;;;14.96;58.92;102315.86;1751448;81;21208;-73
2021/10/15 10:58:36;;;;;;;13.32;7.90;;;;;;;14.89;58.41;102313.77;1744079;81;22489;-75
2021/10/15 11:01:27;;;;;;;10.70;8.28;;;;;;;14.85;58.74;102308.93;1744809;81;21895;-75
2021/10/15 11:04:01;;;;;;;11.28;7.47;;;;;;;14.85;58.80;102304.16;1749710;81;21324;-72
2021/10/15 11:06:58;;;;;;;11.73;7.62;;;;;;;14.85;58.51;102304.73;1753288;81;21165;-71
2021/10/15 11:09:44;;;;;;;14.53;8.00;;;;;;;14.86;58.83;102305.86;1732014;82;21372;-78
2021/10/15 11:12:22;;;;;;;15.15;7.80;;;;;;;14.85;58.31;102316.75;1735850;81;22559;-74
2021/10/15 11:15:11;;;;;;;9.38;6.47;;;;;;;14.83;58.18;102314.77;1740853;82;21316;-72
2021/10/15 11:17:49;;;;;;;10.48;7.55;;;;;;;14.76;56.90;102324.39;1733096;81;21409;-76
2021/10/15 11:20:31;;;;;;;12.05;7.92;;;;;;;14.76;56.90;102324.39;1741563;81;21183;-77
2021/10/15 11:23:11;;;;;;;14.07;8.13;;;;;;;14.79;57.09;102330.91;1741912;81;21226;-77
2021/10/15 11:25:48;;;;;;;14.15;6.62;;;;;;;14.78;56.89;102331.44;1741870;81;21751;-74
2021/10/15 11:28:21;;;;;;;11.03;7.47;;;;;;;14.79;56.77;102326.14;1745774;81;21198;-70
2021/10/15 11:30:54;;;;;;;10.85;7.05;;;;;;;14.75;56.38;102304.52;1747177;81;21178;-73
2021/10/15 11:33:27;;;;;;;12.37;8.60;;;;;;;14.72;56.65;102301.67;1743042;81;21191;-71
2021/10/15 11:35:59;;;;;;;12.20;7.22;;;;;;;14.68;56.67;102299.09;1745239;81;21283;-74
2021/10/15 11:38:32;;;;;;;14.07;6.65;;;;;;;14.65;56.79;102293.11;1746088;81;21222;-73
2021/10/15 11:41:09;;;;;;;9.63;6.05;;;;;;;14.62;56.42;102291.69;1743958;81;21210;-71
2021/10/15 11:43:44;;;;;;;11.40;7.17;;;;;;;14.60;56.08;102293.86;1743345;81;21282;-71
2021/10/15 11:46:20;;;;;;;12.47;7.67;;;;;;;14.55;55.96;102284.53;1747858;81;21207;-74
2021/10/15 11:48:53;;;;;;;13.93;7.33;;;;;;;14.52;55.96;102278.89;1741792;81;21724;-80
2021/10/15 11:51:26;;;;;;;;;;;;;;;14.52;55.95;102278.89;1744642;81;21175;-77
2021/10/15 11:54:03;;;;;;;10.65;7.03;;;;;;;14.49;55.67;102272.38;1749050;81;20186;-72
2021/10/15 11:56:36;;;;;;;14.58;7.95;;;;;;;14.48;56.46;102267.06;1742746;81;21226;-73
2021/10/15 11:59:09;;;;;;;12.33;7.67;;;;;;;14.47;56.80;102262.53;1744529;81;21207;-74
2021/10/15 12:01:42;;;;;;;13.93;7.45;;;;;;;14.45;56.63;102257.22;1742530;81;21229;-76
2021/10/15 12:04:15;;;;;;;13.28;7.62;;;;;;;14.45;56.51;102253.56;1743774;81;21779;-76
2021/10/15 12:06:51;;;;;;;16.50;8.68;;;;;;;14.36;56.88;102234.92;1723764;82;21252;-78
2021/10/15 12:09:25;;;;;;;13.28;8.35;;;;;;;14.36;56.88;102234.92;1726966;82;21376;-76
2021/10/15 12:12:01;;;;;;;15.72;8.18;;;;;;;14.38;57.18;102242.54;1743199;81;21278;-75
2021/10/15 12:14:36;;;;;;;13.90;9.13;;;;;;;14.36;56.75;102223.75;1739928;81;21347;-73
2021/10/15 12:17:21;;;;;;;12.13;7.03;;;;;;;14.36;56.97;102211.17;1738659;81;21226;-78
2021/10/15 12:19:55;;;;;;;13.60;8.20;;;;;;;14.36;56.97;102211.17;1738827;81;21219;-75